createdAt,value
2022-09-24T00:01:20.630Z,84.43
2022-09-24T00:06:20.601Z,85.11
2022-09-24T00:11:20.501Z,86.06
2022-09-24T00:16:20.643Z,86.57
2022-09-24T00:21:20.474Z,86.37
2022-09-24T00:26:20.456Z,86.13
2022-09-24T00:31:31.389Z,86.43
2022-09-24T00:36:20.314Z,87.35
2022-09-24T00:41:20.310Z,87.24
2022-09-24T00:46:20.249Z,86.88
2022-09-24T00:51:20.135Z,87.08
2022-09-24T00:56:20.037Z,87.59
2022-09-24T01:01:20.045Z,88.10
2022-09-24T01:06:19.916Z,88.20
2022-09-24T01:11:19.812Z,88.81
2022-09-24T01:16:19.877Z,89.26
2022-09-24T01:21:19.707Z,89.77
2022-09-24T01:26:19.621Z,89.77
2022-09-24T01:31:19.611Z,89.67
2022-09-24T01:36:19.525Z,89.87
2022-09-24T01:41:19.491Z,89.97
2022-09-24T01:46:19.482Z,89.97
2022-09-24T01:51:19.381Z,89.97
2022-09-24T01:56:19.306Z,90.08
2022-09-24T02:01:19.389Z,90.08
2022-09-24T02:06:19.333Z,90.18
2022-09-24T02:11:22.732Z,90.28
2022-09-24T02:16:19.269Z,90.38
2022-09-24T02:21:19.045Z,90.28
2022-09-24T02:26:19.082Z,90.48
2022-09-24T02:31:21.012Z,90.59
2022-09-24T02:36:18.872Z,90.69
2022-09-24T02:41:18.834Z,90.89
2022-09-24T02:46:18.872Z,90.99
2022-09-24T02:51:18.746Z,91.09
2022-09-24T02:56:18.717Z,90.99
2022-09-24T03:01:18.680Z,90.99
2022-09-24T03:06:18.531Z,91.09
2022-09-24T03:11:18.998Z,91.09
2022-09-24T03:16:18.497Z,90.99
2022-09-24T03:21:18.383Z,90.89
2022-09-24T03:26:18.352Z,90.79
2022-09-24T03:31:18.334Z,90.79
2022-09-24T03:36:18.339Z,90.69
2022-09-24T03:41:18.267Z,90.59
2022-09-24T03:46:18.242Z,90.42
2022-09-24T03:51:18.063Z,90.73
2022-09-24T03:56:18.094Z,90.63
2022-09-24T04:01:18.080Z,90.73
2022-09-24T04:06:21.996Z,90.73
2022-09-24T04:11:18.816Z,90.94
2022-09-24T04:16:17.824Z,91.28
2022-09-24T04:21:17.719Z,91.18
2022-09-24T04:26:17.672Z,91.49
2022-09-24T04:31:17.712Z,91.49
2022-09-24T04:36:17.594Z,91.49
2022-09-24T04:41:17.522Z,91.69
2022-09-24T04:46:17.545Z,91.89
2022-09-24T04:51:17.405Z,91.89
2022-09-24T04:56:17.360Z,92.00
2022-09-24T05:01:17.359Z,92.04
2022-09-24T05:06:17.216Z,91.94
2022-09-24T05:11:17.165Z,92.45
2022-09-24T05:16:17.133Z,92.14
2022-09-24T05:21:17.033Z,92.04
2022-09-24T05:26:16.971Z,92.24
2022-09-24T05:31:16.973Z,92.76
2022-09-24T05:36:16.868Z,92.76
2022-09-24T05:41:16.797Z,93.37
2022-09-24T05:46:16.816Z,93.22
2022-09-24T05:51:16.682Z,92.91
2022-09-24T05:56:16.634Z,92.71
2022-09-24T06:01:16.669Z,92.61
2022-09-24T06:06:16.603Z,92.61
2022-09-24T06:11:16.540Z,92.36
2022-09-24T06:16:16.584Z,92.36
2022-09-24T06:21:16.420Z,92.57
2022-09-24T06:26:17.393Z,92.57
2022-09-24T06:31:16.342Z,92.52
2022-09-24T06:36:16.240Z,92.42
2022-09-24T06:41:16.129Z,92.38
2022-09-24T06:46:16.174Z,92.27
2022-09-24T06:51:16.053Z,91.72
2022-09-24T06:56:15.980Z,91.68
2022-09-24T07:01:15.996Z,91.58
2022-09-24T07:06:15.871Z,90.86
2022-09-24T07:11:15.833Z,90.62
2022-09-24T07:16:15.815Z,90.53
2022-09-24T07:21:15.678Z,89.23
2022-09-24T07:26:15.740Z,88.32
2022-09-24T07:31:15.780Z,87.06
2022-09-24T07:36:15.628Z,85.96
2022-09-24T07:41:15.578Z,85.52
2022-09-24T07:46:16.470Z,84.16
2022-09-24T07:51:15.487Z,82.50
2022-09-24T07:56:15.299Z,81.41
2022-09-24T08:01:15.292Z,81.78
2022-09-24T08:06:15.250Z,81.07
2022-09-24T08:11:15.144Z,81.92
2022-09-24T08:16:15.096Z,82.42
2022-09-24T08:21:15.045Z,82.62
2022-09-24T08:26:14.970Z,83.23
2022-09-24T08:31:15.024Z,82.59
2022-09-24T08:36:14.905Z,82.69
2022-09-24T08:41:14.805Z,80.29
2022-09-24T08:46:14.825Z,78.94
2022-09-24T08:51:14.714Z,77.69
2022-09-24T08:56:14.676Z,75.23
2022-09-24T09:01:14.685Z,77.04
2022-09-24T09:06:14.637Z,75.03
2022-09-24T09:11:14.566Z,73.62
2022-09-24T09:16:14.439Z,75.80
2022-09-24T09:21:14.525Z,72.88
2022-09-24T09:26:14.389Z,72.81
2022-09-24T09:31:14.472Z,72.38
2022-09-24T09:36:14.247Z,71.53
2022-09-24T09:41:14.196Z,70.06
2022-09-24T09:46:14.174Z,70.86
2022-09-24T09:51:16.637Z,70.16
2022-09-24T09:56:14.130Z,69.05
2022-09-24T10:01:14.091Z,68.24
2022-09-24T10:06:14.029Z,68.15
2022-09-24T10:11:13.867Z,68.62
2022-09-24T10:16:13.910Z,67.11
2022-09-24T10:21:13.791Z,67.58
2022-09-24T10:26:13.774Z,66.60
2022-09-24T10:31:13.636Z,66.77
2022-09-24T10:36:13.701Z,64.76
2022-09-24T10:41:14.544Z,66.57
2022-09-24T10:46:13.618Z,64.03
2022-09-24T10:51:13.435Z,65.33
2022-09-24T10:56:13.357Z,62.42
2022-09-24T11:01:13.327Z,64.67
2022-09-24T11:06:13.285Z,61.66
2022-09-24T11:11:13.342Z,62.63
2022-09-24T11:16:13.195Z,61.05
2022-09-24T11:21:13.107Z,61.63
2022-09-24T11:26:14.097Z,61.55
2022-09-24T11:31:13.136Z,62.16
2022-09-24T11:36:13.799Z,62.65
2022-09-24T11:41:16.036Z,65.50
2022-09-24T11:46:12.889Z,66.30
2022-09-24T11:51:14.394Z,67.14
2022-09-24T11:56:13.591Z,65.67
2022-09-24T12:01:14.012Z,64.93
2022-09-24T12:06:12.612Z,64.96
2022-09-24T12:11:12.598Z,64.86
2022-09-24T12:16:12.553Z,65.97
2022-09-24T12:21:12.404Z,67.68
2022-09-24T12:26:12.413Z,66.74
2022-09-24T12:31:12.766Z,65.13
2022-09-24T12:36:12.335Z,65.33
2022-09-24T12:41:12.209Z,66.07
2022-09-24T12:46:12.288Z,67.38
2022-09-24T12:51:12.168Z,66.50
2022-09-24T12:56:12.063Z,68.21
2022-09-24T13:01:12.058Z,66.63
2022-09-24T13:06:11.995Z,68.62
2022-09-24T13:11:12.070Z,68.75
2022-09-24T13:16:12.098Z,69.69
2022-09-24T13:21:11.948Z,69.99
2022-09-24T13:26:11.901Z,68.71
2022-09-24T13:31:12.867Z,69.72
2022-09-24T13:36:11.815Z,69.92
2022-09-24T13:41:12.782Z,69.25
2022-09-24T13:46:11.561Z,69.01
2022-09-24T13:51:11.474Z,69.18
2022-09-24T13:56:11.450Z,67.88
2022-09-24T14:01:13.156Z,67.84
2022-09-24T14:06:11.375Z,68.24
2022-09-24T14:11:11.341Z,68.21
2022-09-24T14:16:11.529Z,66.60
2022-09-24T14:21:11.216Z,67.41
2022-09-24T14:26:11.152Z,67.64
2022-09-24T14:31:11.184Z,67.64
2022-09-24T14:36:11.198Z,68.98
2022-09-24T14:41:11.035Z,69.21
2022-09-24T14:46:10.955Z,69.21
2022-09-24T14:51:10.799Z,69.62
2022-09-24T14:56:10.796Z,71.17
2022-09-24T15:01:10.731Z,71.37
2022-09-24T15:06:10.846Z,73.52
2022-09-24T15:11:10.565Z,75.16
2022-09-24T15:16:10.546Z,75.37
2022-09-24T15:21:10.595Z,76.28
2022-09-24T15:26:10.408Z,76.68
2022-09-24T15:31:10.486Z,76.11
2022-09-24T15:36:10.449Z,77.32
2022-09-24T15:41:10.318Z,76.82
2022-09-24T15:46:10.219Z,77.06
2022-09-24T15:51:13.781Z,78.27
2022-09-24T15:56:11.122Z,77.46
2022-09-24T16:01:10.106Z,77.90
2022-09-24T16:06:09.989Z,78.20
2022-09-24T16:11:09.957Z,78.41
2022-09-24T16:16:09.961Z,77.90
2022-09-24T16:21:09.874Z,78.64
2022-09-24T16:26:10.782Z,79.46
2022-09-24T16:31:09.731Z,79.66
2022-09-24T16:36:09.664Z,80.20
2022-09-24T17:07:41.200Z,82.60
2022-09-24T17:12:40.967Z,82.90
2022-09-24T17:17:45.619Z,83.45
2022-09-24T17:22:41.877Z,83.96
2022-09-24T17:27:40.787Z,84.36
2022-09-24T17:32:40.781Z,84.77
2022-09-24T17:37:41.771Z,85.31
2022-09-24T17:42:40.671Z,85.72
2022-09-24T17:47:40.582Z,85.82
2022-09-24T17:52:40.646Z,86.13
2022-09-24T17:57:40.578Z,86.13
2022-09-24T18:02:42.514Z,86.27
2022-09-24T18:07:42.622Z,86.16
2022-09-24T18:12:44.638Z,86.16
2022-09-24T18:17:40.476Z,86.16
2022-09-24T18:22:43.389Z,86.37
2022-09-24T18:27:40.193Z,86.57
2022-09-24T18:32:40.379Z,86.88
2022-09-24T18:37:44.179Z,86.77
2022-09-24T18:42:39.987Z,86.77
2022-09-24T18:47:40.057Z,86.98
2022-09-24T18:52:39.951Z,86.98
2022-09-24T18:57:42.002Z,86.77
2022-09-24T19:02:39.905Z,86.27
2022-09-24T19:07:44.214Z,86.27
2022-09-24T19:12:39.813Z,86.27
2022-09-24T19:17:42.109Z,86.61
2022-09-24T19:22:39.823Z,86.82
2022-09-24T19:27:50.347Z,86.86
2022-09-24T19:32:48.335Z,87.16
2022-09-24T19:37:39.437Z,87.46
2022-09-24T19:42:39.526Z,87.46
2022-09-24T19:47:41.765Z,87.26
2022-09-24T19:52:39.377Z,87.16
2022-09-24T19:57:39.610Z,87.06
2022-09-24T20:02:41.114Z,87.06
2022-09-24T20:07:47.991Z,87.26
2022-09-24T20:12:39.055Z,87.51
2022-09-24T20:17:38.960Z,87.67
2022-09-24T20:22:39.847Z,87.81
2022-09-24T20:27:38.771Z,87.81
2022-09-24T20:32:38.709Z,87.92
2022-09-24T20:37:38.731Z,88.12
2022-09-24T20:42:38.715Z,88.32
2022-09-24T20:47:38.574Z,88.32
2022-09-24T20:52:38.515Z,88.82
2022-09-24T20:57:38.568Z,88.82
2022-09-24T21:02:41.308Z,88.93
2022-09-24T21:07:38.416Z,88.82
2022-09-24T21:12:40.552Z,88.16
2022-09-24T21:17:38.304Z,88.06
2022-09-24T21:22:39.250Z,87.95
2022-09-24T21:27:38.121Z,87.85
2022-09-24T21:32:38.113Z,87.95
2022-09-24T21:37:38.071Z,87.65
2022-09-24T21:42:38.452Z,87.65
2022-09-24T21:47:37.992Z,87.65
2022-09-24T21:52:37.956Z,87.85
2022-09-24T21:57:37.882Z,88.26
2022-09-24T22:02:43.186Z,88.56
2022-09-24T22:07:37.679Z,88.97
2022-09-24T22:12:37.703Z,89.17
2022-09-24T22:17:37.583Z,89.48
2022-09-24T22:22:38.541Z,89.42
2022-09-24T22:27:37.484Z,89.83
2022-09-24T22:32:37.446Z,89.98
2022-09-24T22:37:37.383Z,89.98
2022-09-24T22:42:37.287Z,90.09
2022-09-24T22:47:37.312Z,90.19
2022-09-24T22:52:37.207Z,90.29
2022-09-24T22:57:37.127Z,90.49
2022-09-24T23:02:37.192Z,90.70
2022-09-24T23:07:37.248Z,90.70
2022-09-24T23:12:37.117Z,90.53
2022-09-24T23:17:37.106Z,90.84
2022-09-24T23:22:36.906Z,90.64
2022-09-24T23:27:36.906Z,90.74
2022-09-24T23:32:36.749Z,90.64
2022-09-24T23:37:36.699Z,90.44
2022-09-24T23:42:36.668Z,90.33
2022-09-24T23:47:37.889Z,90.44
2022-09-24T23:52:36.904Z,90.13
2022-09-24T23:57:36.557Z,89.92
